Terminal Aerodrome Forecast
Issued by NWS

Home | Current Version | Previous Version | Text Only | Print | Product List | Glossary Off
Versions: 1 2 3 4 5 6 7 8 9 10 11 12 13 14 15 16 17 18 19 20 21 22 23 24 25

000
FTUS43 KABR 262300
TAFMBG
TAF
KMBG 262340Z 2700/2724 34004KT P6SM OVC045
     FM270700 13013KT P6SM OVC050
     FM271400 15016KT 2SM -SN BR OVC020
     FM271900 17013KT P6SM OVC035=

USA.gov is the U.S. government's official web portal to all federal, state and local government web resources and services.